Time;durP1;ratioP1;P1;durP2;ratioP2;P2;SDS_P1;SDS_P2;PMS_P1;PMS_P2;Temp;Humidity;BMP_temperature;BMP_pressure;BME280_temperature;BME280_humidity;BME280_pressure;Samples;Min_cycle;Max_cycle;Signal;HPM_P1;HPM_P2
2023/04/02 00:00:59;;;;;;;8.02;1.80;;;;;;;;;;10157928;28;20046;-75
2023/04/02 00:05:53;;;;;;;5.15;2.20;;;;;;;;;;10176181;28;20039;-73
2023/04/02 00:10:58;;;;;;;6.10;2.22;;;;;;;;;;10176269;28;20048;-73
2023/04/02 00:15:56;;;;;;;10.57;2.20;;;;;;;;;;10172838;28;20051;-73
2023/04/02 00:21:20;;;;;;;6.47;1.98;;;;;;;;;;10140344;28;20428;-73
2023/04/02 00:26:39;;;;;;;6.03;1.80;;;;;;;;;;10185163;28;20165;-76
2023/04/02 00:31:35;;;;;;;4.75;2.10;;;;;;;;;;10185440;28;20135;-75
2023/04/02 00:36:32;;;;;;;5.72;2.22;;;;;;;;;;10183515;28;20044;-75
2023/04/02 00:41:30;;;;;;;2.65;1.90;;;;;;;;;;10186065;28;20093;-75
2023/04/02 00:46:33;;;;;;;5.68;2.22;;;;;;;;;;10185865;28;20060;-75
2023/04/02 00:51:30;;;;;;;8.55;3.08;;;;;;;;;;10185966;28;20040;-75
2023/04/02 00:56:55;;;;;;;5.80;2.25;;;;;;;;;;10181246;28;20051;-75
2023/04/02 01:02:00;;;;;;;5.50;3.45;;;;;;;;;;10061908;28;20068;-75
2023/04/02 01:06:54;;;;;;;6.28;2.47;;;;;;;;;;10173642;28;20093;-75
2023/04/02 01:11:53;;;;;;;7.22;2.90;;;;;;;;;;10185488;28;20052;-75
2023/04/02 01:16:53;;;;;;;6.45;2.92;;;;;;;;;;10185073;28;20105;-75
2023/04/02 01:22:06;;;;;;;3.80;2.40;;;;;;;;;;10184069;28;20076;-75
2023/04/02 01:27:01;;;;;;;9.43;3.95;;;;;;;;;;10183976;28;20058;-73
2023/04/02 01:31:58;;;;;;;5.70;2.58;;;;;;;;;;10176823;28;20055;-74
2023/04/02 01:37:09;;;;;;;11.73;3.00;;;;;;;;;;10180999;28;20125;-73
2023/04/02 01:42:24;;;;;;;6.07;2.33;;;;;;;;;;10184801;28;20040;-74
2023/04/02 01:47:21;;;;;;;5.93;2.33;;;;;;;;;;10174405;28;20048;-74
2023/04/02 01:52:18;;;;;;;4.78;2.40;;;;;;;;;;10174571;28;20048;-73
2023/04/02 01:57:12;;;;;;;6.18;3.10;;;;;;;;;;10191704;28;20109;-73
2023/04/02 02:02:06;;;;;;;5.30;2.35;;;;;;;;;;10190472;28;20048;-73
2023/04/02 02:07:03;;;;;;;5.85;2.63;;;;;;;;;;10173900;28;20055;-73
2023/04/02 02:12:00;;;;;;;5.25;2.75;;;;;;;;;;10173496;28;20052;-74
2023/04/02 02:16:55;;;;;;;6.00;2.95;;;;;;;;;;10185398;28;20509;-75
2023/04/02 02:21:53;;;;;;;6.93;3.00;;;;;;;;;;10190355;28;20496;-75
2023/04/02 02:26:49;;;;;;;4.88;2.92;;;;;;;;;;10184549;28;20044;-74
2023/04/02 02:31:43;;;;;;;8.85;3.60;;;;;;;;;;10173355;28;20144;-72
2023/04/02 02:36:48;;;;;;;5.38;3.10;;;;;;;;;;10189430;28;20055;-74
2023/04/02 02:41:48;;;;;;;7.22;3.80;;;;;;;;;;10190265;28;20048;-73
2023/04/02 02:46:56;;;;;;;5.47;3.95;;;;;;;;;;10172051;28;20075;-73
2023/04/02 02:52:02;;;;;;;8.55;4.18;;;;;;;;;;10189068;28;20052;-74
2023/04/02 02:57:06;;;;;;;5.95;3.85;;;;;;;;;;10187296;28;20432;-73
2023/04/02 03:02:01;;;;;;;9.10;4.30;;;;;;;;;;10189797;28;20127;-72
2023/04/02 03:06:56;;;;;;;6.47;4.03;;;;;;;;;;10171904;28;20044;-72
2023/04/02 03:11:57;;;;;;;7.90;4.53;;;;;;;;;;10168192;28;20095;-71
2023/04/02 03:16:53;;;;;;;7.57;4.70;;;;;;;;;;10178704;28;20091;-72
2023/04/02 03:22:01;;;;;;;10.02;4.68;;;;;;;;;;10171631;28;20043;-71
2023/04/02 03:27:04;;;;;;;8.15;5.30;;;;;;;;;;10174709;28;20075;-71
2023/04/02 03:31:58;;;;;;;9.23;5.20;;;;;;;;;;10178973;28;20134;-73
2023/04/02 03:37:15;;;;;;;8.27;5.28;;;;;;;;;;10187056;28;20048;-73
2023/04/02 03:42:13;;;;;;;6.47;4.97;;;;;;;;;;10169636;28;20105;-72
2023/04/02 03:47:32;;;;;;;11.65;6.72;;;;;;;;;;10185820;28;20066;-70
2023/04/02 03:52:27;;;;;;;9.95;6.53;;;;;;;;;;10157380;28;20052;-70
2023/04/02 03:57:54;;;;;;;12.65;5.95;;;;;;;;;;10170132;28;20056;-70
2023/04/02 04:02:52;;;;;;;10.50;6.63;;;;;;;;;;10184082;28;20066;-71
2023/04/02 04:07:48;;;;;;;7.82;5.30;;;;;;;;;;10168987;28;20075;-71
2023/04/02 04:12:46;;;;;;;8.20;5.82;;;;;;;;;;10165567;28;20048;-72
2023/04/02 04:17:52;;;;;;;7.05;5.95;;;;;;;;;;10184994;28;20075;-71
2023/04/02 04:22:54;;;;;;;12.10;6.10;;;;;;;;;;10153950;28;20052;-70
2023/04/02 04:28:07;;;;;;;10.63;7.38;;;;;;;;;;10161995;28;20055;-70
2023/04/02 04:33:14;;;;;;;11.52;7.75;;;;;;;;;;10162691;28;20139;-70
2023/04/02 04:38:20;;;;;;;10.75;7.70;;;;;;;;;;10178664;28;20078;-70
2023/04/02 04:43:18;;;;;;;11.68;7.65;;;;;;;;;;10145631;28;20719;-71
2023/04/02 04:48:25;;;;;;;9.60;7.90;;;;;;;;;;10146256;28;20075;-70
2023/04/02 04:53:21;;;;;;;;;;;;;;;;;;10150360;28;20076;-70
2023/04/02 04:58:21;;;;;;;15.32;8.45;;;;;;;;;;10168308;28;20304;-70
2023/04/02 05:03:39;;;;;;;9.93;7.40;;;;;;;;;;10163051;28;20556;-70
2023/04/02 05:08:35;;;;;;;13.93;8.10;;;;;;;;;;10157113;28;20412;-69
2023/04/02 05:13:37;;;;;;;11.77;9.65;;;;;;;;;;10146005;28;20109;-69
2023/04/02 05:18:43;;;;;;;12.55;8.32;;;;;;;;;;10170837;28;20492;-69
2023/04/02 05:24:02;;;;;;;10.75;9.15;;;;;;;;;;10158270;28;20131;-68
2023/04/02 05:28:59;;;;;;;;;;;;;;;;;;10188419;28;20557;-69
2023/04/02 05:33:53;;;;;;;15.40;9.60;;;;;;;;;;10156417;28;19924;-69
2023/04/02 05:38:50;;;;;;;10.73;7.78;;;;;;;;;;10157869;28;20485;-68
2023/04/02 05:43:50;;;;;;;11.40;8.45;;;;;;;;;;10169546;28;20048;-68
2023/04/02 05:48:46;;;;;;;10.55;8.07;;;;;;;;;;10165632;28;20095;-69
2023/04/02 05:53:59;;;;;;;13.55;9.18;;;;;;;;;;10184229;28;20078;-70
2023/04/02 05:58:56;;;;;;;13.63;9.88;;;;;;;;;;10168479;28;20135;-71
2023/04/02 06:04:06;;;;;;;15.90;9.77;;;;;;;;;;10188156;28;20513;-69
2023/04/02 06:09:07;;;;;;;15.30;10.68;;;;;;;;;;10180204;28;20071;-69
2023/04/02 06:14:00;;;;;;;17.15;12.48;;;;;;;;;;10147429;28;20412;-69
2023/04/02 06:18:54;;;;;;;21.55;14.88;;;;;;;;;;10148330;28;20515;-69
2023/04/02 06:23:55;;;;;;;30.05;23.08;;;;;;;;;;10180963;28;20497;-70
2023/04/02 06:28:52;;;;;;;36.55;26.88;;;;;;;;;;10158151;28;20087;-70
2023/04/02 06:33:53;;;;;;;38.33;28.67;;;;;;;;;;10151887;28;20094;-69
2023/04/02 06:38:49;;;;;;;39.28;27.15;;;;;;;;;;10179974;28;20052;-70
2023/04/02 06:43:45;;;;;;;31.98;25.65;;;;;;;;;;10180447;28;20047;-69
2023/04/02 06:49:28;;;;;;;36.47;25.15;;;;;;;;;;10066343;28;20406;-70
2023/04/02 06:54:25;;;;;;;37.03;27.05;;;;;;;;;;10096802;28;20369;-70
2023/04/02 06:59:23;;;;;;;40.63;28.00;;;;;;;;;;10107808;28;20052;-74
2023/04/02 07:04:20;;;;;;;40.63;26.98;;;;;;;;;;10091557;28;20055;-71
2023/04/02 07:09:18;;;;;;;44.70;30.88;;;;;;;;;;10101451;28;20132;-74
2023/04/02 07:14:16;;;;;;;45.80;32.07;;;;;;;;;;10094504;28;20052;-75
2023/04/02 07:19:18;;;;;;;45.45;30.83;;;;;;;;;;10096718;28;20128;-76
2023/04/02 07:24:14;;;;;;;46.30;32.60;;;;;;;;;;10107958;28;20045;-77
2023/04/02 07:29:10;;;;;;;47.47;31.50;;;;;;;;;;10096005;28;20057;-81
2023/04/02 07:34:04;;;;;;;48.30;31.80;;;;;;;;;;10106525;28;20055;-76
2023/04/02 07:38:58;;;;;;;56.92;35.78;;;;;;;;;;10107417;28;20556;-82
2023/04/02 07:43:52;;;;;;;54.65;33.13;;;;;;;;;;10086184;28;20133;-73
2023/04/02 07:48:46;;;;;;;53.05;32.45;;;;;;;;;;10182575;28;20048;-69
2023/04/02 07:53:41;;;;;;;45.25;28.98;;;;;;;;;;10187694;28;20047;-78
2023/04/02 07:58:33;;;;;;;46.55;30.23;;;;;;;;;;10187247;28;20052;-80
2023/04/02 08:03:28;;;;;;;44.95;30.55;;;;;;;;;;10186272;28;20544;-79
2023/04/02 08:08:23;;;;;;;43.88;27.98;;;;;;;;;;10187133;28;20047;-79
2023/04/02 08:13:18;;;;;;;33.83;26.13;;;;;;;;;;10186525;28;20044;-78
2023/04/02 08:18:12;;;;;;;38.65;27.30;;;;;;;;;;10186956;28;20504;-79
2023/04/02 08:23:34;;;;;;;38.28;27.15;;;;;;;;;;10185891;28;20090;-79
2023/04/02 08:28:28;;;;;;;42.85;30.17;;;;;;;;;;10185962;28;20077;-78
2023/04/02 08:33:21;;;;;;;39.53;26.63;;;;;;;;;;10185657;28;20048;-77
2023/04/02 08:38:21;;;;;;;38.45;28.38;;;;;;;;;;10171991;28;20052;-76
2023/04/02 08:43:55;;;;;;;38.40;28.00;;;;;;;;;;10183870;28;20049;-75
2023/04/02 08:49:00;;;;;;;42.20;29.40;;;;;;;;;;10124049;28;20075;-79
2023/04/02 08:53:55;;;;;;;42.33;29.50;;;;;;;;;;10176685;28;20443;-82
2023/04/02 08:58:54;;;;;;;37.92;29.27;;;;;;;;;;10167948;28;20118;-80
2023/04/02 09:03:49;;;;;;;38.83;30.20;;;;;;;;;;10138796;28;20048;-82
2023/04/02 09:08:43;;;;;;;38.75;29.35;;;;;;;;;;10154162;28;20457;-81
2023/04/02 09:13:41;;;;;;;37.75;27.25;;;;;;;;;;10176661;28;20047;-81
2023/04/02 09:18:35;;;;;;;38.93;27.13;;;;;;;;;;10177855;28;20117;-81
2023/04/02 09:23:29;;;;;;;36.72;26.48;;;;;;;;;;10160840;28;20083;-81
2023/04/02 09:28:23;;;;;;;33.80;25.23;;;;;;;;;;10177551;28;20082;-81
2023/04/02 09:33:16;;;;;;;36.08;25.67;;;;;;;;;;10185438;28;20036;-79
2023/04/02 09:38:11;;;;;;;33.88;25.05;;;;;;;;;;10172749;28;20044;-81
2023/04/02 09:43:15;;;;;;;30.52;24.13;;;;;;;;;;10146237;28;20139;-81
2023/04/02 09:48:22;;;;;;;32.40;25.27;;;;;;;;;;10165021;28;20128;-81
2023/04/02 09:53:34;;;;;;;43.85;32.75;;;;;;;;;;10151324;28;20089;-81
2023/04/02 09:58:28;;;;;;;33.15;23.85;;;;;;;;;;10167615;28;20407;-80
2023/04/02 10:03:30;;;;;;;34.25;26.08;;;;;;;;;;10172704;28;20094;-81
2023/04/02 10:08:43;;;;;;;33.47;25.98;;;;;;;;;;10173525;28;20055;-81
2023/04/02 10:14:29;;;;;;;36.92;24.95;;;;;;;;;;10183825;28;20106;-80
2023/04/02 10:20:00;;;;;;;31.85;23.20;;;;;;;;;;9988537;28;20064;-72
2023/04/02 10:24:55;;;;;;;37.05;22.90;;;;;;;;;;10183398;28;20102;-74
2023/04/02 10:30:09;;;;;;;32.63;24.58;;;;;;;;;;10167428;28;20140;-78
2023/04/02 10:35:24;;;;;;;32.58;23.98;;;;;;;;;;10178380;28;20122;-79
2023/04/02 10:40:34;;;;;;;37.42;27.00;;;;;;;;;;10171777;28;20055;-77
2023/04/02 10:46:13;;;;;;;52.38;36.83;;;;;;;;;;10185540;28;20109;-77
2023/04/02 10:51:31;;;;;;;82.45;58.75;;;;;;;;;;10101148;28;20055;-78
2023/04/02 10:56:25;;;;;;;54.45;36.88;;;;;;;;;;10189602;28;20052;-79
2023/04/02 11:01:27;;;;;;;39.75;26.80;;;;;;;;;;10181659;28;20044;-78
2023/04/02 11:06:26;;;;;;;32.35;21.75;;;;;;;;;;10172692;28;20036;-80
2023/04/02 11:11:29;;;;;;;32.17;21.48;;;;;;;;;;10188625;28;20052;-78
2023/04/02 11:16:23;;;;;;;30.65;20.30;;;;;;;;;;10163209;28;20040;-77
2023/04/02 11:21:40;;;;;;;26.98;17.67;;;;;;;;;;10188372;28;20401;-76
2023/04/02 11:26:52;;;;;;;25.90;17.02;;;;;;;;;;10182066;28;20048;-76
2023/04/02 11:31:47;;;;;;;12.23;9.70;;;;;;;;;;10180209;28;20043;-74
2023/04/02 11:36:49;;;;;;;15.77;11.65;;;;;;;;;;10184174;28;20079;-74
2023/04/02 11:42:01;;;;;;;14.18;8.57;;;;;;;;;;10200404;28;20503;-73
2023/04/02 11:47:15;;;;;;;13.30;10.57;;;;;;;;;;10176159;28;20048;-72
2023/04/02 11:52:23;;;;;;;16.60;11.13;;;;;;;;;;10178938;28;20048;-73
2023/04/02 11:57:40;;;;;;;11.13;8.95;;;;;;;;;;10176171;28;20052;-73
2023/04/02 12:02:52;;;;;;;12.00;9.07;;;;;;;;;;10146993;28;20135;-76
2023/04/02 12:07:54;;;;;;;11.75;9.18;;;;;;;;;;10171626;28;20067;-73
2023/04/02 12:12:47;;;;;;;8.90;7.85;;;;;;;;;;10149524;28;20051;-74
2023/04/02 12:17:46;;;;;;;9.48;8.13;;;;;;;;;;10168676;28;20109;-73
2023/04/02 12:23:11;;;;;;;10.10;8.60;;;;;;;;;;10177526;28;20458;-74
2023/04/02 12:28:10;;;;;;;10.32;8.38;;;;;;;;;;10163933;28;20152;-77
2023/04/02 12:33:21;;;;;;;10.68;9.30;;;;;;;;;;10173973;28;20615;-76
2023/04/02 12:38:28;;;;;;;7.40;6.63;;;;;;;;;;10172844;28;20047;-75
2023/04/02 12:43:41;;;;;;;;;;;;;;;;;;10160489;28;20097;-75
2023/04/02 12:48:35;;;;;;;9.77;8.00;;;;;;;;;;10159742;28;20915;-76
2023/04/02 12:53:34;;;;;;;10.65;8.93;;;;;;;;;;10166339;28;20052;-77
2023/04/02 12:58:41;;;;;;;11.30;8.52;;;;;;;;;;10154794;28;20106;-77
2023/04/02 13:03:34;;;;;;;9.20;8.23;;;;;;;;;;10176752;28;20041;-77
2023/04/02 13:08:29;;;;;;;14.93;10.48;;;;;;;;;;10169278;28;20102;-77
2023/04/02 13:13:29;;;;;;;12.63;10.63;;;;;;;;;;10166373;28;20177;-81
2023/04/02 13:18:22;;;;;;;13.15;11.75;;;;;;;;;;10166234;28;20047;-85
2023/04/02 13:23:31;;;;;;;12.20;10.85;;;;;;;;;;10158544;28;20047;-82
2023/04/02 13:28:25;;;;;;;13.45;11.90;;;;;;;;;;10168343;28;20109;-82
2023/04/02 13:33:19;;;;;;;11.02;9.90;;;;;;;;;;10172232;28;20131;-78
2023/04/02 13:38:12;;;;;;;10.57;9.30;;;;;;;;;;10180921;28;20056;-83
2023/04/02 13:43:06;;;;;;;11.27;9.15;;;;;;;;;;10191677;28;20048;-77
2023/04/02 13:48:00;;;;;;;14.65;10.55;;;;;;;;;;10190971;28;20044;-77
2023/04/02 13:52:57;;;;;;;11.18;9.88;;;;;;;;;;10191661;28;20044;-78
2023/04/02 13:57:51;;;;;;;12.45;10.77;;;;;;;;;;10180241;28;20566;-78
2023/04/02 14:02:51;;;;;;;15.05;11.85;;;;;;;;;;10189385;28;20514;-78
2023/04/02 14:08:07;;;;;;;11.70;10.50;;;;;;;;;;10191924;28;20048;-79
2023/04/02 14:13:03;;;;;;;13.20;11.90;;;;;;;;;;10187761;28;20475;-77
2023/04/02 14:18:10;;;;;;;10.82;9.13;;;;;;;;;;10192057;28;20075;-77
2023/04/02 14:23:28;;;;;;;6.90;6.20;;;;;;;;;;10182220;28;21398;-77
2023/04/02 14:28:27;;;;;;;8.95;5.30;;;;;;;;;;10187444;28;20040;-78
2023/04/02 14:33:26;;;;;;;14.82;7.20;;;;;;;;;;10191314;28;20052;-83
2023/04/02 14:38:39;;;;;;;5.53;3.80;;;;;;;;;;10192535;28;20459;-83
2023/04/02 14:43:39;;;;;;;8.02;4.10;;;;;;;;;;10190675;28;20248;-81
2023/04/02 14:48:53;;;;;;;11.20;7.70;;;;;;;;;;10190259;28;20056;-81
2023/04/02 14:54:12;;;;;;;10.30;6.00;;;;;;;;;;10146694;28;20063;-80
2023/04/02 14:59:35;;;;;;;8.85;6.28;;;;;;;;;;10178502;28;20060;-81
2023/04/02 15:05:08;;;;;;;10.13;8.30;;;;;;;;;;10137653;28;20063;-81
2023/04/02 15:10:21;;;;;;;11.93;6.97;;;;;;;;;;10169884;28;20055;-85
2023/04/02 15:15:41;;;;;;;6.47;4.72;;;;;;;;;;10180358;28;20190;-79
2023/04/02 15:20:45;;;;;;;5.93;3.63;;;;;;;;;;10177815;28;20071;-83
2023/04/02 15:25:49;;;;;;;3.13;2.63;;;;;;;;;;10169653;28;20071;-84
2023/04/02 15:30:44;;;;;;;2.10;1.90;;;;;;;;;;10184674;28;20119;-82
2023/04/02 15:35:46;;;;;;;3.75;2.03;;;;;;;;;;10190657;28;20113;-85
2023/04/02 15:40:42;;;;;;;2.88;2.05;;;;;;;;;;10195269;28;20492;-86
2023/04/02 15:45:37;;;;;;;5.00;1.70;;;;;;;;;;10188122;28;20052;-87
2023/04/02 15:50:36;;;;;;;1.38;1.27;;;;;;;;;;10167803;28;20043;-76
2023/04/02 15:55:41;;;;;;;1.95;1.85;;;;;;;;;;10164444;28;20475;-74
2023/04/02 16:00:41;;;;;;;4.28;2.80;;;;;;;;;;10181822;28;20134;-76
2023/04/02 16:05:41;;;;;;;4.45;3.67;;;;;;;;;;10169446;28;20044;-76
2023/04/02 16:10:40;;;;;;;8.77;4.50;;;;;;;;;;10188533;28;20416;-75
2023/04/02 16:15:45;;;;;;;2.35;2.05;;;;;;;;;;10187149;28;20044;-79
2023/04/02 16:20:56;;;;;;;1.95;1.77;;;;;;;;;;10173962;28;20043;-76
2023/04/02 16:26:01;;;;;;;4.28;1.55;;;;;;;;;;10189689;28;20056;-76
2023/04/02 16:31:11;;;;;;;1.67;1.50;;;;;;;;;;10183330;28;20052;-75
2023/04/02 16:36:12;;;;;;;2.78;1.50;;;;;;;;;;10165998;28;20037;-74
2023/04/02 16:41:18;;;;;;;2.03;1.50;;;;;;;;;;10186064;28;20044;-74
2023/04/02 16:46:23;;;;;;;2.78;1.92;;;;;;;;;;10166435;28;20052;-74
2023/04/02 16:51:46;;;;;;;3.95;3.25;;;;;;;;;;10186737;28;20046;-75
2023/04/02 16:57:10;;;;;;;4.65;2.58;;;;;;;;;;10183061;28;20050;-76
2023/04/02 17:02:31;;;;;;;1.80;1.70;;;;;;;;;;10162908;28;20492;-71
2023/04/02 17:07:43;;;;;;;2.25;1.90;;;;;;;;;;10185899;28;20134;-73
2023/04/02 17:13:08;;;;;;;3.05;2.00;;;;;;;;;;10167801;28;20097;-78
2023/04/02 17:18:04;;;;;;;10.73;6.13;;;;;;;;;;10173667;28;20066;-75
2023/04/02 17:22:58;;;;;;;5.00;2.50;;;;;;;;;;10173934;28;20044;-75
2023/04/02 17:27:54;;;;;;;6.60;3.55;;;;;;;;;;10191779;28;20047;-76
2023/04/02 17:32:49;;;;;;;13.13;8.32;;;;;;;;;;10172047;28;20047;-76
2023/04/02 17:37:50;;;;;;;9.10;8.07;;;;;;;;;;10187911;28;20105;-74
2023/04/02 17:43:02;;;;;;;12.48;9.55;;;;;;;;;;10173537;28;20043;-74
2023/04/02 17:48:43;;;;;;;15.82;12.57;;;;;;;;;;10188708;28;20113;-76
2023/04/02 17:53:57;;;;;;;12.75;11.40;;;;;;;;;;10067749;28;20052;-82
2023/04/02 17:59:51;;;;;;;12.43;11.10;;;;;;;;;;10190817;28;20048;-75
2023/04/02 18:04:59;;;;;;;18.70;11.93;;;;;;;;;;10191291;28;20134;-75
2023/04/02 18:10:18;;;;;;;13.60;11.88;;;;;;;;;;10185519;28;20074;-73
2023/04/02 18:15:34;;;;;;;14.38;12.63;;;;;;;;;;10168566;28;20075;-74
2023/04/02 18:20:42;;;;;;;8.98;7.65;;;;;;;;;;10185306;28;20052;-75
2023/04/02 18:25:55;;;;;;;7.20;6.50;;;;;;;;;;10162966;28;20508;-74
2023/04/02 18:31:07;;;;;;;7.13;6.53;;;;;;;;;;10170300;28;20118;-73
2023/04/02 18:36:26;;;;;;;6.95;5.82;;;;;;;;;;10190346;28;20044;-74
2023/04/02 18:41:20;;;;;;;6.43;5.73;;;;;;;;;;10187049;28;20051;-76
2023/04/02 18:46:32;;;;;;;7.57;5.97;;;;;;;;;;10188311;28;20056;-72
2023/04/02 18:51:31;;;;;;;7.78;5.88;;;;;;;;;;10189499;28;20044;-74
2023/04/02 18:56:25;;;;;;;7.88;6.55;;;;;;;;;;10186976;28;20043;-74
2023/04/02 19:01:41;;;;;;;8.57;5.95;;;;;;;;;;10187233;28;20117;-74
2023/04/02 19:06:37;;;;;;;6.63;5.18;;;;;;;;;;10182316;28;20119;-81
2023/04/02 19:11:31;;;;;;;7.80;5.70;;;;;;;;;;10190660;28;20091;-77
2023/04/02 19:17:25;;;;;;;6.28;4.03;;;;;;;;;;10189790;28;20714;-78
2023/04/02 19:22:57;;;;;;;5.00;4.50;;;;;;;;;;10085930;28;20063;-79
2023/04/02 19:28:01;;;;;;;7.32;4.82;;;;;;;;;;10152170;28;20052;-77
2023/04/02 19:33:24;;;;;;;6.60;5.22;;;;;;;;;;10153395;28;20063;-78
2023/04/02 19:38:35;;;;;;;7.32;6.60;;;;;;;;;;10184065;28;20097;-78
2023/04/02 19:43:29;;;;;;;6.88;6.10;;;;;;;;;;10159506;28;20074;-78
2023/04/02 19:48:27;;;;;;;14.02;10.70;;;;;;;;;;10179657;28;20118;-78
2023/04/02 19:53:21;;;;;;;13.38;9.77;;;;;;;;;;10168970;28;20048;-79
2023/04/02 19:58:36;;;;;;;9.15;8.25;;;;;;;;;;10176281;28;20459;-77
2023/04/02 20:03:30;;;;;;;13.85;7.90;;;;;;;;;;10160238;28;20123;-78
2023/04/02 20:08:24;;;;;;;8.55;7.18;;;;;;;;;;10179828;28;20070;-81
2023/04/02 20:13:18;;;;;;;11.45;7.28;;;;;;;;;;10176661;28;20050;-85
2023/04/02 20:18:12;;;;;;;10.85;6.15;;;;;;;;;;10182506;28;20492;-81
2023/04/02 20:23:05;;;;;;;8.05;6.70;;;;;;;;;;10184199;28;20052;-81
2023/04/02 20:28:01;;;;;;;8.55;6.68;;;;;;;;;;10183417;28;20052;-80
2023/04/02 20:32:58;;;;;;;14.43;10.68;;;;;;;;;;10185085;28;20070;-79
2023/04/02 20:37:52;;;;;;;10.13;8.35;;;;;;;;;;10183900;28;20117;-79
2023/04/02 20:42:46;;;;;;;9.52;8.43;;;;;;;;;;10175958;28;20094;-79
2023/04/02 20:47:40;;;;;;;8.23;5.63;;;;;;;;;;10177555;28;20148;-79
2023/04/02 20:52:34;;;;;;;8.32;7.53;;;;;;;;;;10181212;28;20048;-79
2023/04/02 20:57:30;;;;;;;6.70;5.90;;;;;;;;;;10179744;28;20052;-79
2023/04/02 21:02:23;;;;;;;7.13;5.45;;;;;;;;;;10177019;28;20525;-77
2023/04/02 21:07:18;;;;;;;6.20;5.60;;;;;;;;;;10185020;28;20416;-79
2023/04/02 21:12:12;;;;;;;8.88;6.18;;;;;;;;;;10178178;28;20047;-80
2023/04/02 21:17:08;;;;;;;6.82;5.93;;;;;;;;;;10180856;28;20062;-82
2023/04/02 21:22:03;;;;;;;9.68;6.07;;;;;;;;;;10178346;28;20049;-68
2023/04/02 21:26:57;;;;;;;7.38;6.30;;;;;;;;;;10176366;28;20093;-67
2023/04/02 21:31:52;;;;;;;7.03;6.30;;;;;;;;;;10183820;28;20071;-81
2023/04/02 21:36:47;;;;;;;8.75;5.60;;;;;;;;;;10185115;28;20492;-81
2023/04/02 21:41:43;;;;;;;7.28;4.78;;;;;;;;;;10183600;28;20056;-80
2023/04/02 21:46:38;;;;;;;5.43;4.63;;;;;;;;;;10178800;28;20726;-83
2023/04/02 21:51:33;;;;;;;4.45;3.22;;;;;;;;;;10176617;28;20072;-80
2023/04/02 21:56:29;;;;;;;4.60;3.47;;;;;;;;;;10183914;28;20056;-79
2023/04/02 22:01:26;;;;;;;4.25;3.85;;;;;;;;;;10170768;28;20136;-80
2023/04/02 22:06:24;;;;;;;6.20;5.60;;;;;;;;;;10192574;28;20040;-80
2023/04/02 22:11:20;;;;;;;6.30;4.18;;;;;;;;;;10189240;28;20047;-80
2023/04/02 22:16:19;;;;;;;5.72;4.80;;;;;;;;;;10184962;28;20716;-82
2023/04/02 22:21:13;;;;;;;4.68;4.28;;;;;;;;;;10181822;28;20408;-81
2023/04/02 22:26:06;;;;;;;8.95;5.65;;;;;;;;;;10180922;28;20063;-80
2023/04/02 22:31:07;;;;;;;7.05;4.85;;;;;;;;;;10182790;28;20048;-79
2023/04/02 22:36:01;;;;;;;5.00;3.17;;;;;;;;;;10189007;28;20135;-79
2023/04/02 22:41:13;;;;;;;4.35;3.10;;;;;;;;;;10192626;28;20066;-80
2023/04/02 22:46:08;;;;;;;4.80;3.28;;;;;;;;;;10188455;28;20048;-80
2023/04/02 22:51:00;;;;;;;8.80;3.25;;;;;;;;;;10189182;28;20078;-81
2023/04/02 22:55:54;;;;;;;4.88;3.03;;;;;;;;;;10169652;28;20065;-80
2023/04/02 23:00:47;;;;;;;3.72;3.00;;;;;;;;;;10185802;28;20051;-86
2023/04/02 23:05:41;;;;;;;3.15;2.85;;;;;;;;;;10188179;28;20048;-85
2023/04/02 23:10:35;;;;;;;3.85;2.95;;;;;;;;;;10185693;28;20529;-82
2023/04/02 23:15:29;;;;;;;4.50;3.13;;;;;;;;;;10170758;28;20093;-81
2023/04/02 23:20:23;;;;;;;2.75;2.40;;;;;;;;;;10164741;28;20055;-81
2023/04/02 23:25:17;;;;;;;4.30;2.72;;;;;;;;;;10180020;28;20059;-81
2023/04/02 23:30:11;;;;;;;4.22;2.50;;;;;;;;;;10182332;28;20101;-81
2023/04/02 23:35:05;;;;;;;3.97;3.20;;;;;;;;;;10188738;28;20052;-80
2023/04/02 23:39:59;;;;;;;4.60;3.25;;;;;;;;;;10183107;28;20094;-81
2023/04/02 23:44:53;;;;;;;3.92;2.78;;;;;;;;;;10189425;28;20060;-77
2023/04/02 23:49:46;;;;;;;4.75;3.47;;;;;;;;;;10174500;28;20504;-77
2023/04/02 23:54:40;;;;;;;5.78;3.28;;;;;;;;;;10180385;28;20404;-76
2023/04/02 23:59:33;;;;;;;3.75;3.10;;;;;;;;;;10175092;28;20052;-78
